TimeCST,TemperatureF,Dew PointF,Humidity,Sea Level PressureIn,VisibilityMPH,Wind Direction,Wind SpeedMPH,Gust SpeedMPH,PrecipitationIn,Events,Conditions,WindDirDegrees,DateUTC
12:54 AM,41.0,34.0,76,30.11,10.0,SSE,10.4,-,N/A,,Clear,150,2012-12-06 06:54:00
1:54 AM,37.9,33.1,83,30.10,10.0,SSE,6.9,-,N/A,,Clear,150,2012-12-06 07:54:00
2:54 AM,37.0,33.1,86,30.09,10.0,SSE,8.1,-,N/A,,Clear,150,2012-12-06 08:54:00
3:54 AM,37.0,32.0,82,30.08,10.0,SSE,8.1,-,N/A,,Clear,150,2012-12-06 09:54:00
4:54 AM,37.9,33.1,83,30.06,10.0,SSE,9.2,-,N/A,,Clear,150,2012-12-06 10:54:00
5:54 AM,37.9,33.1,83,30.06,10.0,SSE,10.4,-,N/A,,Clear,150,2012-12-06 11:54:00
6:54 AM,39.0,33.1,79,30.06,10.0,SSE,9.2,-,N/A,,Clear,160,2012-12-06 12:54:00
7:54 AM,39.0,34.0,82,30.04,9.0,SSE,9.2,-,N/A,,Clear,150,2012-12-06 13:54:00
8:54 AM,41.0,34.0,76,30.04,10.0,SSE,11.5,-,N/A,,Clear,160,2012-12-06 14:54:00
9:54 AM,43.0,34.0,71,30.03,10.0,South,6.9,-,N/A,,Partly Cloudy,180,2012-12-06 15:54:00
10:54 AM,46.0,35.1,66,30.02,10.0,South,8.1,-,N/A,,Clear,170,2012-12-06 16:54:00
11:54 AM,48.0,36.0,63,29.99,10.0,South,5.8,-,N/A,,Partly Cloudy,190,2012-12-06 17:54:00
12:54 PM,48.9,37.0,64,29.95,10.0,South,6.9,-,N/A,,Clear,190,2012-12-06 18:54:00
1:54 PM,50.0,37.9,63,29.93,10.0,South,6.9,-,N/A,,Clear,190,2012-12-06 19:54:00
2:54 PM,51.1,39.0,63,29.93,10.0,South,5.8,-,N/A,,Clear,190,2012-12-06 20:54:00
3:54 PM,51.1,39.0,63,29.93,10.0,SSE,4.6,-,N/A,,Clear,160,2012-12-06 21:54:00
4:54 PM,46.9,39.0,74,29.92,10.0,SSE,5.8,-,N/A,,Clear,150,2012-12-06 22:54:00
5:54 PM,48.9,37.9,66,29.93,10.0,SSE,3.5,-,N/A,,Overcast,160,2012-12-06 23:54:00
6:54 PM,48.0,39.0,71,29.94,10.0,South,5.8,-,N/A,,Overcast,190,2012-12-07 00:54:00
7:54 PM,48.0,37.9,68,29.94,10.0,South,5.8,-,N/A,,Overcast,180,2012-12-07 01:54:00
8:54 PM,46.9,39.9,77,29.94,10.0,South,5.8,-,0.01,Rain,Light Rain,170,2012-12-07 02:54:00
9:54 PM,45.0,42.1,90,29.94,5.0,ENE,3.5,-,0.05,Rain,Light Rain,60,2012-12-07 03:54:00
10:54 PM,45.0,42.1,90,29.93,8.0,SSE,3.5,-,0.00,,Mostly Cloudy,160,2012-12-07 04:54:00
11:54 PM,44.1,41.0,89,29.94,5.0,North,4.6,-,N/A,,Mostly Cloudy,350,2012-12-07 05:54:00